Time;durP1;ratioP1;P1;durP2;ratioP2;P2;SDS_P1;SDS_P2;PMS_P1;PMS_P2;Temp;Humidity;BMP_temperature;BMP_pressure;BME280_temperature;BME280_humidity;BME280_pressure;Samples;Min_cycle;Max_cycle;Signal;HPM_P1;HPM_P2
2023/01/28 00:00:08;;;;;;;8.10;6.10;;;16.90;52.70;;;;;;5101734;28;20032;-71
2023/01/28 00:02:37;;;;;;;7.30;5.88;;;16.90;52.40;;;;;;5101737;28;20343;-70
2023/01/28 00:05:03;;;;;;;8.95;5.60;;;17.10;52.20;;;;;;5101738;28;20020;-70
2023/01/28 00:07:29;;;;;;;8.45;6.30;;;17.10;52.10;;;;;;5101526;28;20115;-70
2023/01/28 00:09:55;;;;;;;7.00;5.60;;;17.10;52.00;;;;;;5101666;28;20028;-69
2023/01/28 00:12:21;;;;;;;8.10;5.72;;;17.10;51.90;;;;;;5101500;28;20024;-70
2023/01/28 00:14:46;;;;;;;6.85;5.93;;;17.20;51.90;;;;;;5100100;28;20024;-70
2023/01/28 00:17:14;;;;;;;7.40;5.70;;;17.20;51.90;;;;;;5101289;28;20093;-70
2023/01/28 00:19:40;;;;;;;8.73;6.07;;;17.20;51.90;;;;;;5101240;28;20104;-71
2023/01/28 00:22:06;;;;;;;9.27;6.32;;;17.20;51.90;;;;;;5101274;28;20027;-70
2023/01/28 00:24:31;;;;;;;8.23;6.50;;;17.20;51.90;;;;;;5101282;28;20039;-70
2023/01/28 00:26:57;;;;;;;6.65;5.68;;;17.30;51.90;;;;;;5101208;28;20386;-71
2023/01/28 00:29:23;;;;;;;10.80;6.55;;;17.20;51.80;;;;;;5101125;28;20051;-71
2023/01/28 00:31:49;;;;;;;7.90;5.70;;;17.10;51.80;;;;;;5101275;28;20047;-70
2023/01/28 00:34:15;;;;;;;7.30;6.07;;;17.10;52.00;;;;;;5101397;28;20028;-71
2023/01/28 00:36:41;;;;;;;7.35;6.20;;;17.10;52.00;;;;;;5099877;28;20126;-71
2023/01/28 00:39:13;;;;;;;6.80;5.72;;;17.00;52.00;;;;;;5101163;28;20028;-71
2023/01/28 00:41:38;;;;;;;7.72;5.88;;;16.90;52.10;;;;;;5100932;28;20012;-71
2023/01/28 00:44:04;;;;;;;8.05;5.50;;;16.90;52.20;;;;;;5100852;28;20080;-71
2023/01/28 00:46:30;;;;;;;6.63;5.22;;;16.80;52.40;;;;;;5100015;28;20036;-70
2023/01/28 00:48:56;;;;;;;8.90;6.45;;;16.80;52.50;;;;;;5100730;28;20111;-71
2023/01/28 00:51:22;;;;;;;7.38;5.30;;;16.70;52.50;;;;;;5099341;28;20360;-70
2023/01/28 00:53:48;;;;;;;8.45;6.13;;;16.60;52.70;;;;;;5100799;28;20020;-70
2023/01/28 00:56:16;;;;;;;8.38;6.38;;;16.60;52.70;;;;;;5100711;28;20044;-70
2023/01/28 00:58:42;;;;;;;7.43;5.43;;;16.50;52.90;;;;;;5100531;28;20024;-70
2023/01/28 01:01:19;;;;;;;7.97;6.20;;;16.50;53.00;;;;;;5100542;28;20293;-71
2023/01/28 01:03:46;;;;;;;7.63;6.32;;;16.50;53.20;;;;;;5100531;28;20028;-70
2023/01/28 01:06:14;;;;;;;7.97;6.30;;;16.60;53.00;;;;;;5100567;28;20027;-70
2023/01/28 01:08:41;;;;;;;6.88;5.78;;;16.80;52.80;;;;;;5100276;28;20099;-69
2023/01/28 01:11:10;;;;;;;8.23;6.10;;;16.80;52.50;;;;;;5100496;28;20031;-71
2023/01/28 01:13:37;;;;;;;7.70;5.57;;;17.00;52.30;;;;;;5100516;28;20032;-71
2023/01/28 01:16:12;;;;;;;9.13;6.38;;;17.10;52.10;;;;;;5100524;28;20028;-70
2023/01/28 01:18:41;;;;;;;6.53;5.05;;;17.10;51.90;;;;;;5100428;28;20209;-70
2023/01/28 01:21:13;;;;;;;10.00;6.35;;;17.20;51.80;;;;;;5100344;28;20279;-70
2023/01/28 01:23:39;;;;;;;7.55;6.15;;;17.20;51.70;;;;;;5100425;28;20328;-71
2023/01/28 01:26:05;;;;;;;7.75;5.80;;;17.20;51.70;;;;;;5100518;28;20024;-70
2023/01/28 01:28:31;;;;;;;8.20;5.68;;;17.20;51.80;;;;;;5100364;28;20116;-70
2023/01/28 01:31:06;;;;;;;7.20;5.40;;;17.20;51.80;;;;;;5099102;28;20216;-70
2023/01/28 01:33:32;;;;;;;6.40;5.13;;;17.20;51.80;;;;;;5100365;28;20025;-70
2023/01/28 01:35:58;;;;;;;7.03;5.78;;;17.10;51.80;;;;;;5100202;28;20028;-71
2023/01/28 01:38:25;;;;;;;9.45;6.22;;;17.10;51.80;;;;;;5100248;28;20204;-71
2023/01/28 01:40:51;;;;;;;8.20;5.78;;;17.10;51.90;;;;;;5100159;28;20334;-71
2023/01/28 01:43:19;;;;;;;8.20;6.18;;;17.10;52.00;;;;;;5100083;28;20028;-71
2023/01/28 01:45:59;;;;;;;6.57;5.35;;;17.00;52.10;;;;;;5099957;28;20031;-71
2023/01/28 01:48:32;;;;;;;7.78;5.75;;;16.90;52.10;;;;;;5100017;28;20097;-70
2023/01/28 01:51:07;;;;;;;7.38;5.80;;;16.80;52.30;;;;;;5100073;28;20095;-69
2023/01/28 01:53:36;;;;;;;7.55;5.15;;;16.80;52.40;;;;;;5099990;28;20020;-70
2023/01/28 01:56:07;;;;;;;6.75;5.65;;;16.70;52.50;;;;;;5100032;28;20035;-70
2023/01/28 01:58:37;;;;;;;6.38;5.20;;;16.70;52.60;;;;;;5102365;28;20028;-70
2023/01/28 02:01:03;;;;;;;7.70;5.78;;;16.60;52.70;;;;;;5102718;28;20057;-70
2023/01/28 02:03:54;;;;;;;7.63;6.00;;;16.50;52.80;;;;;;5104009;28;20027;-70
2023/01/28 02:06:21;;;;;;;6.82;5.65;;;16.50;53.00;;;;;;5092855;28;20032;-71
2023/01/28 02:08:47;;;;;;;7.40;5.43;;;16.60;53.00;;;;;;5103813;28;20442;-70
2023/01/28 02:11:14;;;;;;;8.07;6.20;;;16.70;52.90;;;;;;5102485;28;20024;-70
2023/01/28 02:13:45;;;;;;;9.20;6.13;;;16.80;52.80;;;;;;5103860;28;20024;-70
2023/01/28 02:16:12;;;;;;;5.97;5.10;;;16.90;52.40;;;;;;5103719;28;20012;-71
2023/01/28 02:18:38;;;;;;;7.80;5.65;;;17.00;52.20;;;;;;5102300;28;20035;-70
2023/01/28 02:21:25;;;;;;;7.97;5.75;;;17.10;52.20;;;;;;5102353;28;20024;-72
2023/01/28 02:24:03;;;;;;;7.05;5.13;;;17.20;52.00;;;;;;5102368;28;20028;-70
2023/01/28 02:26:47;;;;;;;8.27;5.85;;;17.20;51.80;;;;;;5103496;28;20048;-71
2023/01/28 02:29:33;;;;;;;6.72;5.68;;;17.20;51.70;;;;;;5103512;28;20529;-70
2023/01/28 02:32:08;;;;;;;7.20;5.25;;;17.20;51.60;;;;;;5103425;28;20024;-70
2023/01/28 02:34:41;;;;;;;7.18;5.68;;;17.20;51.60;;;;;;5103396;28;20094;-70
2023/01/28 02:37:15;;;;;;;7.28;5.60;;;17.20;51.60;;;;;;5103433;28;20063;-70
2023/01/28 02:39:51;;;;;;;6.35;5.57;;;17.20;51.60;;;;;;5103441;28;20224;-69
2023/01/28 02:42:29;;;;;;;7.25;5.88;;;17.10;51.70;;;;;;5103415;28;20031;-70
2023/01/28 02:44:55;;;;;;;6.97;5.15;;;17.10;51.80;;;;;;5103350;28;20031;-70
2023/01/28 02:50:10;;;;;;;7.00;4.97;;;16.90;52.00;;;;;;5103412;28;20065;-70
2023/01/28 02:53:42;;;;;;;7.00;5.43;;;16.90;52.20;;;;;;5103223;28;20031;-70
2023/01/28 02:56:43;;;;;;;7.57;5.75;;;16.80;52.30;;;;;;5077108;28;20067;-70
2023/01/28 02:59:32;;;;;;;7.68;5.18;;;16.70;52.40;;;;;;5070033;28;20229;-70
2023/01/28 03:02:14;;;;;;;5.75;4.72;;;16.70;52.50;;;;;;5102932;28;20036;-70
2023/01/28 03:04:54;;;;;;;6.85;5.45;;;16.60;52.70;;;;;;5102730;28;20185;-70
2023/01/28 03:07:22;;;;;;;7.93;5.70;;;16.50;52.60;;;;;;5102561;28;20355;-70
2023/01/28 03:09:50;;;;;;;6.68;5.30;;;16.50;52.80;;;;;;5101660;28;20031;-70
2023/01/28 03:38:40;;;;;;;7.85;6.05;;;17.30;51.60;;;;;;5102181;28;20027;-69
2023/01/28 03:41:08;;;;;;;8.85;6.15;;;17.30;51.60;;;;;;5102113;28;20205;-70
2023/01/28 03:43:34;;;;;;;6.60;5.40;;;17.30;51.50;;;;;;5102030;28;20254;-72
2023/01/28 03:46:01;;;;;;;6.78;5.45;;;17.30;51.50;;;;;;5102115;28;20096;-70
2023/01/28 03:48:30;;;;;;;6.65;5.13;;;17.30;51.50;;;;;;5102028;28;20039;-69
2023/01/28 03:50:59;;;;;;;7.57;5.45;;;17.30;51.40;;;;;;5102021;28;20095;-70
2023/01/28 03:53:25;;;;;;;7.70;5.93;;;17.20;51.50;;;;;;5101789;28;20058;-69
2023/01/28 03:55:52;;;;;;;6.82;5.25;;;17.20;51.50;;;;;;5101754;28;20028;-70
2023/01/28 03:58:19;;;;;;;7.53;5.07;;;17.10;51.70;;;;;;5101717;28;20061;-70
2023/01/28 04:00:45;;;;;;;6.68;5.25;;;17.10;51.80;;;;;;5101722;28;20031;-70
2023/01/28 04:03:16;;;;;;;9.18;5.75;;;17.00;51.80;;;;;;5101613;28;20043;-70
2023/01/28 04:05:43;;;;;;;8.70;6.20;;;16.90;51.90;;;;;;5101293;28;20047;-70
2023/01/28 04:08:08;;;;;;;7.70;5.55;;;16.90;52.10;;;;;;5101403;28;20052;-70
2023/01/28 04:10:34;;;;;;;7.00;5.50;;;16.80;52.10;;;;;;5101670;28;20023;-70
2023/01/28 04:13:00;;;;;;;6.97;5.70;;;16.80;52.30;;;;;;5100190;28;20023;-70
2023/01/28 04:15:26;;;;;;;9.68;5.65;;;16.70;52.30;;;;;;5101536;28;20030;-71
2023/01/28 04:17:51;;;;;;;7.43;5.47;;;16.60;52.50;;;;;;5101673;28;20027;-70
2023/01/28 04:20:17;;;;;;;7.60;5.68;;;16.60;52.60;;;;;;5101482;28;20028;-70
2023/01/28 04:22:43;;;;;;;6.90;5.18;;;16.60;52.70;;;;;;5101536;28;20235;-70
2023/01/28 04:25:09;;;;;;;6.63;5.45;;;16.50;52.90;;;;;;5101356;28;20223;-70
2023/01/28 04:27:35;;;;;;;8.25;5.05;;;16.60;52.90;;;;;;5101251;28;20036;-70
2023/01/28 04:30:00;;;;;;;7.43;5.78;;;16.60;52.80;;;;;;5101257;28;20032;-70
2023/01/28 04:32:26;;;;;;;7.50;5.40;;;16.80;52.70;;;;;;5101181;28;20375;-70
2023/01/28 04:34:52;;;;;;;7.45;5.13;;;16.90;52.40;;;;;;5101121;28;20024;-70
2023/01/28 04:37:18;;;;;;;8.30;5.43;;;17.00;52.10;;;;;;5101138;28;20089;-70
2023/01/28 04:39:43;;;;;;;5.55;4.47;;;17.10;52.10;;;;;;5101048;28;20016;-70
2023/01/28 04:42:09;;;;;;;6.93;5.25;;;17.10;51.80;;;;;;5100982;28;20036;-70
2023/01/28 04:44:35;;;;;;;7.15;5.25;;;17.10;51.70;;;;;;5101048;28;20355;-70
2023/01/28 04:47:01;;;;;;;6.88;4.90;;;17.10;51.60;;;;;;5100996;28;20032;-70
2023/01/28 04:49:27;;;;;;;8.23;5.63;;;17.10;51.70;;;;;;5100846;28;20087;-70
2023/01/28 04:51:52;;;;;;;6.63;5.18;;;17.10;51.60;;;;;;5100981;28;20069;-70
2023/01/28 04:54:18;;;;;;;8.18;5.68;;;17.20;51.70;;;;;;5099578;28;20095;-70
2023/01/28 04:56:44;;;;;;;7.40;5.22;;;17.20;51.60;;;;;;5100900;28;20028;-70
2023/01/28 04:59:10;;;;;;;6.18;5.13;;;17.20;51.50;;;;;;5100725;28;20028;-70
2023/01/28 05:01:35;;;;;;;7.47;5.63;;;17.20;51.40;;;;;;5099575;28;20069;-71
2023/01/28 05:04:04;;;;;;;7.10;5.85;;;17.20;51.40;;;;;;5099436;28;20028;-70
2023/01/28 05:06:31;;;;;;;7.13;5.60;;;17.20;51.40;;;;;;5100783;28;20027;-71
2023/01/28 05:08:57;;;;;;;6.85;5.55;;;17.10;51.40;;;;;;5100348;28;20335;-71
2023/01/28 05:11:23;;;;;;;7.93;5.75;;;17.10;51.60;;;;;;5100581;28;20054;-71
2023/01/28 05:13:49;;;;;;;7.28;5.28;;;17.10;51.70;;;;;;5100533;28;20050;-72
2023/01/28 05:16:15;;;;;;;7.32;5.90;;;17.00;51.80;;;;;;5100527;28;20079;-71
2023/01/28 05:18:41;;;;;;;7.22;5.78;;;16.90;51.80;;;;;;5100493;28;20223;-71
2023/01/28 05:21:06;;;;;;;7.20;5.13;;;16.90;51.90;;;;;;5100443;28;20048;-70
2023/01/28 05:23:32;;;;;;;7.32;5.50;;;16.80;52.00;;;;;;5100346;28;20027;-72
2023/01/28 05:25:58;;;;;;;8.18;5.80;;;16.80;52.20;;;;;;5100219;28;20058;-71
2023/01/28 05:28:24;;;;;;;5.85;4.97;;;16.80;52.30;;;;;;5098949;28;20038;-71
2023/01/28 05:30:50;;;;;;;8.57;5.30;;;16.70;52.40;;;;;;5100301;28;20358;-72
2023/01/28 05:33:16;;;;;;;6.93;5.15;;;16.70;52.70;;;;;;5099842;28;20035;-72
2023/01/28 05:35:42;;;;;;;5.32;4.82;;;16.60;52.70;;;;;;5100314;28;20028;-71
2023/01/28 05:38:08;;;;;;;8.55;5.65;;;16.50;52.80;;;;;;5100293;28;20047;-72
2023/01/28 05:40:34;;;;;;;5.90;4.65;;;16.50;52.90;;;;;;5100259;28;20039;-71
2023/01/28 05:43:00;;;;;;;7.38;5.43;;;16.50;52.90;;;;;;5100176;28;20024;-71
2023/01/28 05:45:26;;;;;;;8.23;5.32;;;16.70;52.90;;;;;;5100155;28;20028;-71
2023/01/28 05:47:51;;;;;;;7.65;5.40;;;16.80;52.50;;;;;;5098699;28;20575;-71
2023/01/28 05:50:17;;;;;;;6.00;5.40;;;16.90;52.40;;;;;;5100118;28;20027;-71
2023/01/28 05:52:44;;;;;;;5.88;5.22;;;17.00;52.10;;;;;;5100131;28;20024;-71
2023/01/28 05:55:10;;;;;;;7.07;5.18;;;17.00;51.90;;;;;;5100025;28;20058;-71
2023/01/28 05:57:36;;;;;;;6.80;5.32;;;17.10;51.70;;;;;;5099981;28;20024;-71
2023/01/28 06:00:04;;;;;;;8.32;5.13;;;17.10;51.60;;;;;;5099946;28;20031;-71
2023/01/28 06:02:30;;;;;;;7.15;5.85;;;17.10;51.60;;;;;;5100003;28;20024;-71
2023/01/28 06:04:56;;;;;;;5.78;4.75;;;17.10;51.60;;;;;;5099946;28;20035;-71
2023/01/28 06:07:22;;;;;;;6.60;5.22;;;17.10;51.60;;;;;;5099847;28;20083;-71
2023/01/28 06:09:48;;;;;;;6.18;5.07;;;17.20;51.70;;;;;;5099947;28;20024;-70
2023/01/28 06:12:14;;;;;;;8.13;5.68;;;17.10;51.50;;;;;;5100021;28;20047;-71
2023/01/28 06:14:41;;;;;;;7.72;5.55;;;17.10;51.50;;;;;;5099933;28;20027;-71
2023/01/28 06:17:07;;;;;;;7.45;5.45;;;17.00;51.50;;;;;;5098751;28;20016;-71
2023/01/28 06:19:33;;;;;;;6.82;5.18;;;17.00;51.70;;;;;;5099918;28;20105;-71
2023/01/28 06:21:59;;;;;;;6.60;5.45;;;17.00;51.80;;;;;;5099966;28;20339;-71
2023/01/28 06:24:24;;;;;;;6.18;5.05;;;16.90;51.90;;;;;;5099913;28;20028;-71
2023/01/28 06:26:50;;;;;;;8.43;5.68;;;16.90;52.00;;;;;;5098475;28;20215;-71
2023/01/28 06:29:16;;;;;;;6.70;5.07;;;16.80;52.10;;;;;;5099744;28;20024;-71
2023/01/28 06:31:42;;;;;;;7.32;5.60;;;16.80;52.20;;;;;;5099904;28;20375;-72
2023/01/28 06:34:09;;;;;;;7.20;5.53;;;16.70;52.20;;;;;;5099925;28;20056;-71
2023/01/28 06:36:36;;;;;;;6.93;5.15;;;16.60;52.30;;;;;;5099782;28;20026;-71
2023/01/28 06:39:03;;;;;;;7.73;5.53;;;16.60;52.60;;;;;;5098380;28;20073;-71
2023/01/28 06:41:29;;;;;;;7.85;4.93;;;16.50;52.60;;;;;;5099648;28;20320;-71
2023/01/28 06:43:55;;;;;;;6.85;4.95;;;16.50;52.70;;;;;;5100392;28;20024;-71
2023/01/28 06:46:21;;;;;;;8.57;5.85;;;16.40;52.90;;;;;;5103265;28;20055;-70
2023/01/28 06:48:47;;;;;;;7.50;4.82;;;16.50;53.00;;;;;;5103177;28;20024;-71
2023/01/28 06:51:12;;;;;;;7.53;5.15;;;16.60;52.80;;;;;;5103118;28;20020;-72
2023/01/28 06:53:38;;;;;;;6.80;5.20;;;16.70;52.70;;;;;;5103149;28;20291;-71
2023/01/28 06:56:04;;;;;;;7.07;5.82;;;16.80;52.40;;;;;;5101713;28;20031;-72
2023/01/28 06:58:30;;;;;;;6.78;5.25;;;16.90;52.20;;;;;;5102969;28;20024;-72
2023/01/28 07:00:56;;;;;;;7.43;5.25;;;17.00;52.00;;;;;;5103018;28;20036;-71
2023/01/28 07:03:22;;;;;;;6.97;5.38;;;17.10;51.90;;;;;;5103000;28;20320;-71
2023/01/28 07:05:48;;;;;;;5.90;4.80;;;17.10;51.80;;;;;;5102964;28;20028;-71
2023/01/28 07:08:13;;;;;;;6.63;5.00;;;17.10;51.70;;;;;;5102638;28;20099;-71
2023/01/28 07:10:39;;;;;;;7.00;5.40;;;17.10;51.60;;;;;;5101585;28;20344;-71
2023/01/28 07:13:05;;;;;;;7.88;5.43;;;17.20;51.70;;;;;;5102811;28;20028;-71
2023/01/28 07:15:31;;;;;;;7.25;5.18;;;17.20;51.60;;;;;;5102696;28;20223;-70
2023/01/28 07:17:56;;;;;;;8.27;5.88;;;17.20;51.60;;;;;;5102609;28;20028;-71
2023/01/28 07:20:22;;;;;;;5.38;4.60;;;17.20;51.50;;;;;;5102547;28;20309;-71
2023/01/28 07:22:48;;;;;;;6.50;4.88;;;17.20;51.50;;;;;;5102514;28;20032;-71
2023/01/28 07:25:14;;;;;;;6.15;4.72;;;17.20;51.60;;;;;;5102443;28;20028;-71
2023/01/28 07:27:49;;;;;;;6.88;5.30;;;17.20;51.50;;;;;;5102315;28;20028;-71
2023/01/28 07:30:16;;;;;;;6.88;5.25;;;17.20;51.60;;;;;;5102446;28;20219;-71
2023/01/28 07:32:42;;;;;;;7.15;5.10;;;17.20;51.50;;;;;;5101104;28;20020;-71
2023/01/28 07:35:08;;;;;;;7.20;5.22;;;17.10;51.50;;;;;;5102388;28;20373;-71
2023/01/28 07:37:34;;;;;;;6.68;5.13;;;17.10;51.50;;;;;;5102217;28;20069;-71
2023/01/28 07:40:00;;;;;;;7.15;5.15;;;17.10;51.60;;;;;;5102211;28;20028;-71
2023/01/28 07:42:26;;;;;;;5.30;4.47;;;17.00;51.70;;;;;;5102178;28;20031;-71
2023/01/28 07:44:52;;;;;;;9.30;5.07;;;17.00;51.70;;;;;;5102017;28;20028;-71
2023/01/28 07:47:20;;;;;;;6.60;4.97;;;17.00;51.80;;;;;;5101965;28;20039;-70
2023/01/28 07:49:46;;;;;;;7.60;5.38;;;16.90;51.90;;;;;;5101933;28;20312;-71
2023/01/28 07:52:12;;;;;;;6.07;4.50;;;16.80;51.90;;;;;;5100562;28;20031;-71
2023/01/28 07:54:38;;;;;;;7.00;5.03;;;16.80;52.10;;;;;;5101465;28;20038;-72
2023/01/28 07:57:08;;;;;;;7.13;5.30;;;16.80;52.30;;;;;;5101757;28;20024;-71
2023/01/28 07:59:35;;;;;;;6.55;5.13;;;16.70;52.40;;;;;;5102010;28;20039;-70
2023/01/28 08:02:00;;;;;;;6.07;5.15;;;16.60;52.60;;;;;;5101840;28;20265;-70
2023/01/28 08:04:26;;;;;;;6.70;5.05;;;16.60;52.60;;;;;;5101740;28;20028;-70
2023/01/28 08:06:52;;;;;;;6.20;5.13;;;16.60;52.70;;;;;;5101605;28;20031;-70
2023/01/28 08:09:18;;;;;;;7.43;5.60;;;16.70;52.70;;;;;;5101525;28;20062;-70
2023/01/28 08:11:44;;;;;;;7.05;5.20;;;16.80;52.50;;;;;;5101496;28;20071;-71
2023/01/28 08:14:10;;;;;;;7.20;5.28;;;16.80;52.20;;;;;;5101415;28;20044;-70
2023/01/28 08:16:36;;;;;;;6.53;4.68;;;16.90;52.10;;;;;;5101343;28;20490;-70
2023/01/28 08:19:02;;;;;;;8.13;5.30;;;17.10;51.90;;;;;;5101319;28;20035;-70
2023/01/28 08:21:28;;;;;;;6.28;4.72;;;17.10;51.60;;;;;;5101361;28;20277;-70
2023/01/28 08:23:55;;;;;;;6.78;5.30;;;17.20;51.60;;;;;;5101216;28;20311;-70
2023/01/28 08:26:22;;;;;;;6.47;4.72;;;17.20;51.50;;;;;;5101259;28;20024;-70
2023/01/28 08:28:48;;;;;;;5.18;4.07;;;17.20;51.50;;;;;;5101190;28;20104;-70
2023/01/28 08:31:14;;;;;;;6.50;4.57;;;17.20;51.50;;;;;;5101247;28;20319;-70
2023/01/28 08:33:39;;;;;;;6.97;5.00;;;17.20;51.60;;;;;;5101154;28;20052;-70
2023/01/28 08:36:06;;;;;;;6.18;5.00;;;17.20;51.70;;;;;;5101139;28;20028;-70
2023/01/28 08:38:31;;;;;;;6.95;4.75;;;17.20;51.70;;;;;;5101048;28;20035;-70
2023/01/28 08:40:58;;;;;;;5.90;4.80;;;17.20;51.50;;;;;;5101125;28;20052;-70
2023/01/28 08:43:24;;;;;;;5.65;4.35;;;17.10;51.50;;;;;;5100998;28;20016;-69
2023/01/28 08:45:50;;;;;;;5.80;4.65;;;17.10;51.50;;;;;;5101056;28;20024;-70
2023/01/28 08:48:18;;;;;;;6.60;5.07;;;17.10;51.60;;;;;;5100814;28;20124;-70
2023/01/28 08:50:44;;;;;;;6.68;4.88;;;17.10;51.70;;;;;;5099586;28;20340;-70
2023/01/28 08:53:13;;;;;;;6.28;4.78;;;17.00;51.70;;;;;;5100737;28;20063;-71
2023/01/28 08:55:39;;;;;;;6.72;5.20;;;17.00;51.70;;;;;;5100594;28;20016;-70
2023/01/28 08:58:08;;;;;;;6.72;4.60;;;16.90;51.90;;;;;;5100615;28;20031;-71
2023/01/28 09:00:35;;;;;;;6.28;4.72;;;16.80;51.90;;;;;;5100647;28;20083;-71
2023/01/28 09:03:00;;;;;;;5.82;4.22;;;16.80;52.00;;;;;;5100611;28;20027;-70
2023/01/28 09:05:26;;;;;;;5.80;4.80;;;16.80;52.00;;;;;;5100643;28;20415;-71
2023/01/28 09:07:52;;;;;;;6.40;4.72;;;16.70;52.10;;;;;;5098184;28;20339;-70
2023/01/28 09:10:19;;;;;;;5.95;4.88;;;16.70;52.20;;;;;;5099196;28;20028;-70
2023/01/28 09:12:45;;;;;;;6.97;4.72;;;16.60;52.40;;;;;;5100510;28;20057;-71
2023/01/28 09:15:11;;;;;;;6.47;4.85;;;16.60;52.50;;;;;;5100429;28;20228;-71
2023/01/28 09:17:37;;;;;;;5.40;4.32;;;16.60;52.60;;;;;;5100427;28;20280;-71
2023/01/28 09:20:04;;;;;;;4.93;4.32;;;16.70;52.50;;;;;;5100384;28;20095;-71
2023/01/28 09:22:29;;;;;;;6.10;4.72;;;16.80;52.30;;;;;;5100214;28;20018;-71
2023/01/28 09:24:55;;;;;;;6.00;4.35;;;16.90;52.10;;;;;;5100282;28;20028;-70
2023/01/28 09:27:21;;;;;;;5.30;4.55;;;17.00;51.80;;;;;;5100206;28;20028;-70
2023/01/28 09:29:47;;;;;;;7.05;4.60;;;17.10;51.70;;;;;;5100193;28;20032;-70
2023/01/28 09:32:13;;;;;;;6.20;4.85;;;17.20;51.60;;;;;;5100197;28;20270;-70
2023/01/28 09:34:40;;;;;;;5.82;4.55;;;17.30;51.50;;;;;;5100152;28;20190;-70
2023/01/28 09:37:06;;;;;;;6.10;4.55;;;17.20;51.40;;;;;;5100084;28;20319;-71
2023/01/28 09:39:32;;;;;;;6.10;4.80;;;17.20;51.20;;;;;;5098714;28;20035;-71
2023/01/28 09:42:34;;;;;;;7.05;5.22;;;17.20;51.20;;;;;;5100060;28;20031;-70
2023/01/28 09:45:18;;;;;;;5.47;4.30;;;17.20;51.10;;;;;;5100047;28;20050;-70
2023/01/28 09:47:52;;;;;;;6.75;5.05;;;17.20;51.20;;;;;;5100041;28;20293;-70
2023/01/28 09:50:32;;;;;;;6.13;5.15;;;17.20;51.20;;;;;;5100105;28;20035;-70
2023/01/28 09:53:27;;;;;;;5.85;4.70;;;17.20;51.30;;;;;;5100075;28;20328;-70
2023/01/28 09:56:00;;;;;;;5.90;4.78;;;17.10;51.40;;;;;;5098461;28;20044;-70
2023/01/28 09:58:26;;;;;;;6.07;5.05;;;17.10;51.40;;;;;;5100113;28;20024;-70
2023/01/28 10:01:04;;;;;;;7.38;4.70;;;17.10;51.60;;;;;;5099947;28;20035;-70
2023/01/28 10:03:48;;;;;;;6.20;4.57;;;17.00;51.70;;;;;;5098656;28;20031;-69
2023/01/28 10:06:27;;;;;;;7.15;4.68;;;17.00;51.70;;;;;;5099983;28;20073;-69
2023/01/28 10:09:08;;;;;;;;;;;17.00;51.70;;;;;;5100165;28;20051;-70
2023/01/28 10:12:07;;;;;;;6.68;4.85;;;17.00;51.90;;;;;;5099898;28;19915;-71
2023/01/28 10:15:03;;;;;;;6.75;4.95;;;16.90;51.80;;;;;;5099997;28;20065;-70
2023/01/28 10:17:44;;;;;;;6.85;5.20;;;16.90;51.80;;;;;;5098782;28;20031;-72
2023/01/28 10:20:10;;;;;;;6.25;4.60;;;16.90;51.90;;;;;;5103791;28;20039;-69
2023/01/28 10:22:43;;;;;;;7.78;5.28;;;16.90;51.90;;;;;;5103706;28;20016;-71
2023/01/28 10:25:19;;;;;;;6.03;4.70;;;16.80;52.00;;;;;;5102325;28;20066;-70
2023/01/28 10:27:46;;;;;;;5.40;4.55;;;16.80;52.00;;;;;;5103478;28;20027;-71
2023/01/28 10:30:17;;;;;;;6.22;4.72;;;16.90;51.90;;;;;;5103467;28;20115;-70
2023/01/28 10:32:57;;;;;;;5.50;4.20;;;17.00;51.90;;;;;;5103486;28;20069;-71
2023/01/28 10:35:23;;;;;;;6.47;4.75;;;17.10;51.70;;;;;;5103422;28;20057;-71
2023/01/28 10:37:54;;;;;;;7.22;5.38;;;17.20;51.50;;;;;;5103420;28;20061;-71
2023/01/28 10:40:19;;;;;;;7.32;5.20;;;17.20;51.30;;;;;;5102081;28;20198;-70
2023/01/28 10:42:45;;;;;;;5.60;4.82;;;17.30;51.20;;;;;;5103349;28;20038;-70
2023/01/28 10:45:22;;;;;;;7.10;5.32;;;17.30;51.20;;;;;;5103238;28;20028;-71
2023/01/28 10:47:52;;;;;;;4.68;3.88;;;17.40;51.20;;;;;;5101870;28;20020;-70
2023/01/28 10:50:22;;;;;;;4.97;4.15;;;17.40;51.10;;;;;;5103176;28;20016;-70
2023/01/28 10:53:03;;;;;;;6.82;5.05;;;17.40;51.10;;;;;;5103167;28;20027;-70
2023/01/28 10:55:35;;;;;;;6.07;4.93;;;17.40;51.00;;;;;;5103223;28;20031;-70
2023/01/28 10:58:04;;;;;;;6.07;4.43;;;17.40;51.10;;;;;;5103132;28;20020;-69
2023/01/28 11:00:36;;;;;;;6.07;4.65;;;17.30;51.00;;;;;;5102930;28;20035;-70
2023/01/28 11:03:02;;;;;;;5.72;4.45;;;17.30;51.00;;;;;;5102938;28;20028;-70
2023/01/28 11:05:30;;;;;;;6.18;4.38;;;17.30;51.20;;;;;;5102877;28;20024;-71
2023/01/28 11:08:05;;;;;;;6.65;4.55;;;17.20;51.30;;;;;;5102540;28;20056;-71
2023/01/28 11:10:34;;;;;;;5.15;4.20;;;17.10;51.30;;;;;;5102766;28;20047;-70
2023/01/28 11:13:03;;;;;;;5.68;4.13;;;17.10;51.50;;;;;;5102604;28;20039;-69
2023/01/28 11:15:29;;;;;;;5.47;4.20;;;17.10;51.60;;;;;;5102770;28;20016;-70
2023/01/28 11:18:14;;;;;;;4.80;4.00;;;17.10;51.70;;;;;;5102807;28;20239;-71
2023/01/28 11:20:50;;;;;;;5.57;4.13;;;17.00;51.80;;;;;;5102746;28;20024;-71
2023/01/28 11:23:33;;;;;;;5.47;4.22;;;16.90;51.80;;;;;;5101258;28;20024;-70
2023/01/28 11:26:01;;;;;;;4.95;3.75;;;16.90;51.90;;;;;;5102537;28;20008;-70
2023/01/28 11:28:27;;;;;;;;;;;16.90;51.90;;;;;;5102826;28;20054;-70
2023/01/28 11:30:56;;;;;;;6.88;5.22;;;16.90;52.00;;;;;;5101588;28;19904;-71
2023/01/28 11:33:26;;;;;;;;;;;16.90;51.90;;;;;;5101501;28;20020;-71
2023/01/28 11:35:57;;;;;;;5.90;3.67;;;17.00;51.90;;;;;;5102272;28;19915;-71
2023/01/28 11:38:25;;;;;;;5.32;4.30;;;17.00;51.90;;;;;;5102216;28;20364;-70
2023/01/28 11:40:52;;;;;;;6.70;4.40;;;17.10;51.90;;;;;;5102244;28;20073;-71
2023/01/28 11:43:22;;;;;;;5.85;4.28;;;17.20;51.70;;;;;;5102328;28;20306;-70
2023/01/28 11:46:13;;;;;;;5.82;4.85;;;17.30;51.50;;;;;;5102436;28;20031;-70
2023/01/28 11:49:16;;;;;;;6.07;4.63;;;17.40;51.30;;;;;;5101953;28;20020;-70
2023/01/28 11:52:03;;;;;;;4.78;3.92;;;17.40;51.20;;;;;;5102021;28;20047;-70
2023/01/28 11:54:45;;;;;;;5.90;4.53;;;17.40;51.20;;;;;;5102031;28;20444;-70
2023/01/28 11:57:29;;;;;;;6.30;4.65;;;17.40;51.10;;;;;;5101983;28;20069;-70
2023/01/28 12:00:30;;;;;;;5.78;4.70;;;17.40;51.10;;;;;;5101847;28;20058;-70
2023/01/28 12:03:40;;;;;;;4.75;4.25;;;17.40;51.10;;;;;;5101826;28;20068;-70
2023/01/28 12:06:34;;;;;;;4.93;4.20;;;17.30;51.20;;;;;;5101749;28;20047;-72
2023/01/28 12:09:17;;;;;;;4.75;3.95;;;17.30;51.20;;;;;;5075087;28;20052;-70
2023/01/28 12:12:28;;;;;;;6.75;4.97;;;17.30;51.20;;;;;;5101589;28;20141;-71
2023/01/28 12:15:20;;;;;;;5.45;4.05;;;17.20;51.30;;;;;;5077797;28;20036;-70
2023/01/28 12:18:04;;;;;;;5.07;4.13;;;17.20;51.40;;;;;;5101564;28;20016;-70
2023/01/28 12:20:57;;;;;;;5.30;4.28;;;17.10;51.60;;;;;;5101632;28;20235;-71
2023/01/28 12:23:32;;;;;;;5.53;4.03;;;17.10;51.60;;;;;;5093017;28;20043;-70
2023/01/28 12:26:20;;;;;;;5.63;4.10;;;17.10;51.70;;;;;;5101442;28;20589;-70
2023/01/28 12:29:11;;;;;;;6.60;4.65;;;17.00;51.80;;;;;;5101179;28;20028;-71
2023/01/28 12:31:45;;;;;;;5.50;4.20;;;16.90;51.90;;;;;;5101201;28;20097;-69
2023/01/28 12:34:11;;;;;;;7.47;4.95;;;16.90;52.00;;;;;;5099850;28;20020;-70
2023/01/28 12:37:12;;;;;;;5.38;4.15;;;16.90;52.00;;;;;;5101058;28;20560;-71
2023/01/28 12:40:16;;;;;;;6.20;4.70;;;16.90;52.00;;;;;;5089992;28;20396;-70
2023/01/28 12:42:52;;;;;;;5.60;4.05;;;17.00;52.00;;;;;;5099294;28;20251;-70
2023/01/28 12:45:30;;;;;;;5.05;4.30;;;17.10;52.00;;;;;;5100997;28;20039;-70
2023/01/28 12:48:09;;;;;;;5.60;4.25;;;17.10;51.70;;;;;;5100790;28;20020;-70
2023/01/28 12:51:02;;;;;;;5.65;4.13;;;17.20;51.60;;;;;;5100936;28;20024;-70
2023/01/28 12:53:52;;;;;;;6.38;4.38;;;17.30;51.40;;;;;;5100880;28;20024;-70
2023/01/28 12:56:26;;;;;;;5.63;4.28;;;17.40;51.40;;;;;;5100808;28;20024;-69
2023/01/28 12:59:05;;;;;;;6.10;4.18;;;17.40;51.20;;;;;;5100732;28;20070;-70
2023/01/28 13:01:56;;;;;;;5.53;4.18;;;17.40;51.10;;;;;;5100601;28;20024;-71
2023/01/28 13:04:56;;;;;;;5.47;4.00;;;17.40;51.10;;;;;;5100606;28;20374;-70
2023/01/28 13:07:40;;;;;;;5.50;4.30;;;17.40;51.00;;;;;;5092130;28;20060;-70
2023/01/28 13:10:22;;;;;;;4.93;3.92;;;17.40;51.10;;;;;;5100458;28;20036;-70
2023/01/28 13:12:50;;;;;;;5.95;4.20;;;17.30;51.40;;;;;;5100352;28;20094;-71
2023/01/28 13:15:18;;;;;;;4.80;3.63;;;17.30;51.60;;;;;;5099118;28;20027;-71
2023/01/28 13:18:04;;;;;;;5.43;4.70;;;17.20;51.60;;;;;;5098995;28;20103;-70
2023/01/28 13:20:37;;;;;;;5.50;3.78;;;17.20;51.70;;;;;;5100363;28;20024;-71
2023/01/28 13:23:21;;;;;;;5.75;4.07;;;17.10;51.80;;;;;;5100319;28;20023;-71
2023/01/28 13:25:49;;;;;;;4.93;4.07;;;17.10;51.80;;;;;;5100253;28;20028;-71
2023/01/28 13:28:27;;;;;;;5.27;4.67;;;17.00;51.80;;;;;;5100292;28;20031;-71
2023/01/28 13:31:13;;;;;;;5.82;4.18;;;17.00;52.00;;;;;;5100252;28;20315;-70
2023/01/28 13:33:40;;;;;;;6.30;4.13;;;16.90;52.00;;;;;;5100281;28;20128;-70
2023/01/28 13:36:32;;;;;;;4.47;4.05;;;16.90;52.10;;;;;;5100271;28;20019;-70